Latest Weather Observations for Gabo Island

IDN60801

Issued at 3:05 pm EST Wednesday 30 July 2014 (issued every 30 minutes, with the page automatically refreshed every 10 minutes)

About weather observations | Map of weather stations | Latest weather observations for NSW | Other Formats
Station Details ID: 084016 Name: GABO ISLAND LIGHTHOUSE Lat: -37.57 Lon: 149.92 Height: 15.2 m
Data from the previous 72 hours. | See also: Recent months at Gabo Island
Date/Time
EST
Temp
°C
App
Temp
°C
Dew
Point
Rel
Hum
%
Delta-T
°C
Wind Press
QNH
hPa
Press
MSL
hPa
Rain
since 9 am
mm
Dir
 
Spd
km/h
Gust
km/h
Spd
kts
Gust
kts
30/03:00pm 16.4 15.6 12.8 79 2.0 E 9 13 5 7 1009.5 1009.5 0.0
30/02:30pm 16.5 15.1 12.3 76 2.3 ESE 11 15 6 8 1009.6 - 0.0
30/02:00pm 17.0 15.0 12.7 76 2.4 SE 15 20 8 11 1009.7 - 0.0
30/01:30pm 17.5 16.0 13.0 75 2.5 SE 13 20 7 11 1009.7 - 0.0
30/01:00pm 17.6 15.8 13.2 75 2.5 SSE 15 19 8 10 1009.9 - 0.0
30/12:30pm 18.1 17.0 11.9 67 3.4 ESE 9 15 5 8 1010.4 - 0.0
30/12:00pm 17.5 16.3 11.6 68 3.2 E 9 11 5 6 1010.5 1010.5 0.0
30/11:30am 17.5 16.5 12.3 71 2.9 NE 9 11 5 6 1010.8 - 0.0
30/11:00am 17.1 15.8 12.4 74 2.6 NE 11 13 6 7 1011.2 - 0.0
30/10:30am 17.2 16.6 12.3 73 2.7 ENE 7 9 4 5 1011.6 - 0.0
30/10:00am 16.8 16.4 12.3 75 2.5 SSE 6 9 3 5 1011.8 - 0.0
30/09:30am 16.4 15.6 11.2 71 2.8 S 6 6 3 3 1011.8 - 0.0
30/09:00am 15.8 14.6 9.6 66 3.2 WSW 6 9 3 5 1012.0 1012.1 0.0
30/08:30am 14.7 13.5 9.7 72 2.6 W 6 11 3 6 1011.9 - 0.0
30/08:00am 15.1 13.1 10.1 72 2.6 WSW 11 19 6 10 1011.9 - 0.0
30/07:30am 15.2 12.3 10.9 75 2.3 SSW 17 20 9 11 1011.5 - 0.0
30/07:00am 15.1 13.9 10.3 73 2.5 SSE 7 9 4 5 1011.1 - 0.0
30/06:30am 15.6 14.6 9.0 65 3.4 NNE 4 6 2 3 1010.5 - 0.0
30/06:00am 15.8 12.8 6.1 52 4.7 NNW 11 13 6 7 1010.2 1010.1 0.0
30/05:30am 16.1 12.7 6.0 51 4.9 NW 13 17 7 9 1009.9 - 0.0
30/05:00am 15.3 13.7 6.2 54 4.4 NW 4 11 2 6 1009.6 - 0.0
30/04:30am 14.3 11.8 8.1 66 3.1 N 11 13 6 7 1009.2 - 0.0
30/04:00am 14.1 11.1 7.9 66 3.1 NNE 13 15 7 8 1009.0 - 0.0
30/03:30am 15.2 11.9 4.8 50 4.9 N 11 15 6 8 1008.8 - 0.0
30/03:00am 15.1 11.3 3.8 46 5.2 N 13 19 7 10 1008.8 1008.7 0.0
30/02:30am 15.3 11.5 4.1 47 5.2 N 13 19 7 10 1008.6 - 0.0
30/02:00am 15.7 11.2 4.4 47 5.3 NNW 17 22 9 12 1008.4 - 0.0
30/01:30am 15.9 11.4 4.4 46 5.4 NNW 17 26 9 14 1008.3 - 0.0
30/01:00am 15.9 11.1 4.7 47 5.3 NNW 19 28 10 15 1008.2 - 0.0
30/12:30am 15.9 10.9 3.8 44 5.6 NNW 19 26 10 14 1008.2 - 0.0
30/12:00am 16.2 11.5 3.1 41 6.0 NNW 17 24 9 13 1008.2 1008.2 0.0
 
Date/Time
EST
Temp
°C
App
Temp
°C
Dew
Point
Rel
Hum
%
Delta-T
°C
Wind Press
QNH
hPa
Press
MSL
hPa
Rain
since 9 am
mm
Dir
 
Spd
km/h
Gust
km/h
Spd
kts
Gust
kts
29/11:30pm 15.8 11.6 3.7 44 5.6 NNW 15 20 8 11 1008.2 - 0.0
29/11:00pm 16.1 11.0 3.2 42 5.9 NNW 19 24 10 13 1008.2 - 0.0
29/10:30pm 16.1 11.4 3.2 42 5.9 NNW 17 22 9 12 1008.0 - 0.0
29/10:00pm 16.3 11.3 3.5 42 5.9 NNW 19 26 10 14 1008.1 - 0.0
29/09:30pm 16.6 11.4 3.4 41 6.1 NW 20 30 11 16 1008.5 - 0.0
29/09:00pm 16.9 11.6 2.9 39 6.4 NNW 20 30 11 16 1008.0 1007.9 0.0
29/08:30pm 16.6 11.9 3.4 41 6.1 NNW 17 26 9 14 1007.8 - 0.0
29/08:00pm 16.5 11.8 2.9 40 6.2 N 17 22 9 12 1007.7 - 0.0
29/07:30pm 15.6 11.3 3.1 43 5.7 N 15 22 8 12 1007.7 - 0.0
29/07:00pm 15.9 11.5 2.9 41 5.9 NNW 15 19 8 10 1007.7 - 0.0
29/06:30pm 16.4 12.3 2.5 39 6.3 N 13 20 7 11 1007.7 - 0.0
29/06:00pm 16.6 12.2 2.8 39 6.3 NNW 15 20 8 11 1007.3 1007.2 0.0
29/05:30pm 16.9 12.4 2.0 36 6.7 NNW 15 24 8 13 1007.2 - 0.0
29/05:00pm 17.4 12.0 1.2 33 7.2 NNW 19 24 10 13 1006.9 - 0.0
29/04:30pm 17.6 12.7 1.9 35 7.1 NNW 17 26 9 14 1006.9 - 0.0
29/04:00pm 18.2 13.6 1.6 33 7.5 NNW 15 26 8 14 1006.5 - 0.0
29/03:30pm 18.8 13.0 0.2 28 8.2 NNW 20 30 11 16 1006.6 - 0.0
29/03:00pm 20.0 14.2 -0.1 26 8.9 NW 20 30 11 16 1006.5 1006.5 0.0
29/02:30pm 20.1 14.5 0.1 26 8.9 NW 19 28 10 15 1006.3 - 0.0
29/02:00pm 21.1 15.9 -0.2 24 9.5 NNW 17 26 9 14 1006.6 - 0.0
29/01:30pm 21.8 16.6 0.0 23 9.8 NW 17 24 9 13 1007.0 - 0.0
29/01:00pm 21.7 16.8 1.7 26 9.3 NNW 17 24 9 13 1006.9 - 0.0
29/12:30pm 21.1 16.6 2.3 29 8.8 NNW 15 20 8 11 1007.3 - 0.0
29/12:00pm 18.2 14.3 8.8 54 4.9 NNE 19 24 10 13 1007.7 1007.8 0.0
29/11:30am 20.0 16.1 3.3 33 7.9 N 13 20 7 11 1008.6 - 0.0
29/11:00am 16.8 13.8 9.1 60 4.0 NNE 15 20 8 11 1009.5 - 0.0
29/10:30am 16.6 12.9 8.1 57 4.3 NNE 17 24 9 13 1009.7 - 0.0
29/10:00am 15.9 11.5 7.5 57 4.2 NNE 20 24 11 13 1009.8 - 0.0
29/09:30am 15.8 11.6 7.4 57 4.2 NNE 19 28 10 15 1009.6 - 0.0
29/09:00am 18.0 12.0 0.8 31 7.6 N 22 35 12 19 1009.6 1009.7 0.0
29/08:30am 17.3 12.4 2.3 36 6.8 N 17 24 9 13 1010.1 - 0.0
29/08:00am 14.4 9.7 5.0 53 4.4 N 19 26 10 14 1009.9 - 0.0
29/07:30am 14.2 8.6 3.6 49 4.8 N 22 28 12 15 1010.3 - 0.0
29/07:00am 12.3 7.9 4.9 60 3.4 N 17 20 9 11 1010.6 - 0.0
29/06:30am 12.3 7.4 4.9 60 3.4 N 20 24 11 13 1010.4 - 0.0
29/06:00am 11.8 6.5 4.8 62 3.2 N 22 26 12 14 1010.3 1010.3 0.0
29/05:30am 12.0 6.4 3.2 55 3.9 N 22 26 12 14 1010.3 - 0.0
29/05:00am 12.2 7.0 3.4 55 3.9 N 20 24 11 13 1010.3 - 0.0
29/04:30am 12.5 7.1 4.4 58 3.7 N 22 26 12 14 1010.4 - 0.0
29/04:00am 12.6 7.6 3.7 54 4.0 N 19 26 10 14 1010.8 - 0.0
29/03:30am 12.3 7.4 4.9 60 3.4 N 20 24 11 13 1011.1 - 0.0
29/03:00am 12.2 7.1 4.0 57 3.7 N 20 24 11 13 1011.3 1011.4 0.0
29/02:30am 12.2 7.2 4.5 59 3.5 N 20 24 11 13 1011.6 - 0.0
29/02:00am 11.5 7.2 5.2 65 2.9 N 17 20 9 11 1012.0 - 0.0
29/01:30am 11.9 8.2 4.7 61 3.3 N 13 15 7 8 1012.2 - 0.0
29/01:00am 12.3 8.3 4.9 60 3.4 N 15 17 8 9 1012.4 - 0.0
29/12:30am 12.6 9.0 3.1 52 4.2 N 11 15 6 8 1012.7 - 0.0
29/12:00am 13.1 10.2 4.9 57 3.8 N 9 15 5 8 1012.8 1012.8 0.0
 
Date/Time
EST
Temp
°C
App
Temp
°C
Dew
Point
Rel
Hum
%
Delta-T
°C
Wind Press
QNH
hPa
Press
MSL
hPa
Rain
since 9 am
mm
Dir
 
Spd
km/h
Gust
km/h
Spd
kts
Gust
kts
28/11:30pm 14.1 9.4 3.2 48 4.9 NNE 17 20 9 11 1012.9 - 0.0
28/11:00pm 14.1 8.9 3.5 49 4.8 NNE 20 26 11 14 1012.9 - 0.0
28/10:30pm 13.5 8.4 4.3 53 4.2 NNE 20 24 11 13 1013.1 - 0.0
28/10:00pm 14.6 9.3 3.0 45 5.2 NNE 20 24 11 13 1013.3 - 0.0
28/09:30pm 13.7 9.6 4.3 53 4.3 N 15 19 8 10 1013.7 - 0.0
28/09:00pm 14.6 10.0 1.5 41 5.7 N 15 19 8 10 1013.9 1013.8 0.0
28/08:30pm 14.6 10.4 1.8 42 5.6 N 13 17 7 9 1013.8 - 0.0
28/08:00pm 15.4 10.5 1.8 40 6.0 NNW 17 28 9 15 1013.9 - 0.0
28/07:30pm 13.9 10.7 5.1 55 4.1 N 11 17 6 9 1013.9 - 0.0
28/07:00pm 15.2 10.6 1.8 40 5.9 N 15 20 8 11 1013.8 - 0.0
28/06:30pm 15.7 10.8 2.2 40 6.0 N 17 26 9 14 1013.7 - 0.0
28/06:00pm 14.0 10.8 8.4 69 2.8 N 15 24 8 13 1013.5 1013.4 0.0
28/05:30pm 14.7 11.4 9.7 72 2.6 NNE 17 20 9 11 1013.4 - 0.0
28/05:00pm 15.3 11.5 9.1 66 3.2 N 19 22 10 12 1013.4 - 0.0
28/04:30pm 16.1 11.0 7.7 57 4.2 N 24 30 13 16 1013.4 - 0.0
28/04:00pm 17.0 11.7 8.4 57 4.4 NNE 26 32 14 17 1013.5 - 0.0
28/03:30pm 17.6 12.4 8.9 56 4.5 NNE 26 28 14 15 1013.6 - 0.0
28/03:00pm 19.3 15.1 3.9 36 7.3 N 15 22 8 12 1013.7 1013.8 0.0
28/02:30pm 19.5 15.6 3.3 34 7.6 N 13 15 7 8 1013.8 - 0.0
28/02:00pm 19.4 17.7 6.1 42 6.6 ESE 4 11 2 6 1014.1 - 0.0
28/01:30pm 19.6 17.0 4.1 36 7.4 N 7 15 4 8 1014.3 - 0.0
28/01:00pm 19.3 15.1 3.6 35 7.4 NNW 15 20 8 11 1014.7 - 0.0
28/12:30pm 18.3 13.4 4.1 39 6.7 NW 19 24 10 13 1015.3 - 0.0
28/12:00pm 17.8 12.7 4.0 40 6.5 NNW 20 26 11 14 1015.9 1015.9 0.0
28/11:30am 17.2 12.1 3.0 38 6.5 NW 19 26 10 14 1016.2 - 0.0
28/11:00am 16.9 11.8 3.2 40 6.3 NW 19 26 10 14 1016.6 - 0.0
28/10:30am 16.6 11.2 2.7 39 6.3 NW 20 26 11 14 1017.2 - 0.0
28/10:00am 15.6 9.7 1.7 39 6.1 NNW 22 30 12 16 1017.3 - 0.0
28/09:30am 14.8 9.3 1.8 41 5.7 NW 20 32 11 17 1017.4 - 0.0
28/09:00am 14.0 9.2 2.4 45 5.1 NW 17 28 9 15 1017.6 1017.6 0.0
28/08:30am 13.2 8.8 2.5 48 4.7 NW 15 24 8 13 1017.8 - 0.0
28/08:00am 12.3 7.4 2.1 49 4.4 NW 17 22 9 12 1018.0 - 0.0
28/07:30am 11.3 6.5 2.5 54 3.8 NW 17 22 9 12 1018.1 - 0.0
28/07:00am 10.5 6.9 2.8 59 3.3 NW 11 17 6 9 1018.1 - 0.0
28/06:30am 10.7 6.4 3.1 59 3.3 NW 15 19 8 10 1018.1 - 0.0
28/06:00am 10.2 5.6 3.8 64 2.8 NW 17 20 9 11 1017.9 1017.8 0.0
28/05:30am 9.9 5.3 3.5 64 2.8 NNW 17 20 9 11 1017.7 - 0.0
28/05:00am 9.5 5.1 4.5 71 2.2 NW 17 20 9 11 1017.8 - 0.0
28/04:30am 9.6 5.4 5.6 76 1.8 NW 17 20 9 11 1018.2 - 0.0
28/04:00am 9.6 6.5 7.3 85 1.1 WNW 13 17 7 9 1018.4 - 0.0
28/03:30am 9.7 7.1 7.8 88 0.9 WNW 11 13 6 7 1018.4 - 0.0
28/03:00am 9.6 6.7 8.1 90 0.7 WNW 13 17 7 9 1018.6 1018.6 0.0
28/02:30am 9.9 7.4 8.2 89 0.8 NW 11 13 6 7 1018.5 - 0.0
28/02:00am 10.2 7.1 8.8 91 0.7 WNW 15 17 8 9 1018.7 - 0.0
28/01:30am 10.3 8.4 8.9 91 0.7 WNW 9 11 5 6 1019.2 - 0.0
28/01:00am 10.6 7.9 9.0 90 0.8 NW 13 13 7 7 1019.4 - 0.0
28/12:30am 11.0 8.8 9.2 89 0.9 WNW 11 13 6 7 1019.6 - 0.0
28/12:00am 11.2 8.8 8.8 85 1.2 WNW 11 13 6 7 1019.8 1019.9 0.0
 
Date/Time
EST
Temp
°C
App
Temp
°C
Dew
Point
Rel
Hum
%
Delta-T
°C
Wind Press
QNH
hPa
Press
MSL
hPa
Rain
since 9 am
mm
Dir
 
Spd
km/h
Gust
km/h
Spd
kts
Gust
kts
27/11:30pm 11.4 9.4 8.6 83 1.4 NNW 9 13 5 7 1019.8 - 0.0
27/11:00pm 11.5 8.7 8.4 81 1.5 NNW 13 15 7 8 1020.0 - 0.0
27/10:30pm 11.5 8.4 8.9 84 1.3 NNW 15 19 8 10 1020.2 - 0.0
27/10:00pm 11.3 8.3 9.1 86 1.1 NNW 15 19 8 10 1020.8 - 0.0
27/09:30pm 12.3 9.3 9.3 82 1.5 WNW 15 17 8 9 1021.2 - 0.0
27/09:00pm 12.3 9.4 9.5 83 1.4 WNW 15 17 8 9 1021.1 1021.2 0.0
27/08:30pm 12.5 9.8 10.2 86 1.2 W 15 17 8 9 1021.3 - 0.0
27/08:00pm 13.1 10.7 10.0 81 1.6 W 13 17 7 9 1021.1 - 0.0
27/07:30pm 13.9 11.3 9.2 73 2.4 SW 13 15 7 8 1020.7 - 0.0
27/07:00pm 14.1 11.9 9.4 73 2.4 SSW 11 13 6 7 1020.7 - 0.0
27/06:30pm 14.0 11.0 9.3 73 2.4 SW 15 19 8 10 1020.7 - 0.0
27/06:00pm 14.1 10.8 9.6 74 2.3 SSW 17 20 9 11 1020.3 1020.3 0.0
27/05:30pm 14.0 10.1 9.3 73 2.4 SSW 20 24 11 13 1020.1 - 0.0
27/05:00pm 14.3 10.1 9.6 73 2.4 SSW 22 26 12 14 1019.9 - 0.0
27/04:30pm 14.4 8.9 9.3 71 2.6 SW 28 32 15 17 1020.0 - 0.0
27/04:00pm 14.7 8.5 9.4 70 2.7 SW 32 35 17 19 1020.1 - 0.0
27/03:30pm 15.1 8.2 8.8 66 3.2 SW 35 41 19 22 1020.2 - 0.0

Other Formats:

Comma delimited format used in spreadsheet applications
http://www.bom.gov.au/fwo/IDN60801/IDN60801.94933.axf

JavaScript Object Notation format (JSON) in row-major order
http://www.bom.gov.au/fwo/IDN60801/IDN60801.94933.json